createdAt,value
2023-01-10T00:00:38.970Z,12.68
2023-01-10T00:03:08.336Z,11.88
2023-01-10T00:05:36.844Z,11.18
2023-01-10T00:08:04.374Z,10.88
2023-01-10T00:10:34.690Z,12.23
2023-01-10T00:13:19.885Z,12.00
2023-01-10T00:15:46.523Z,11.43
2023-01-10T00:18:13.099Z,11.68
2023-01-10T00:20:39.622Z,11.90
2023-01-10T00:23:06.897Z,11.20
2023-01-10T00:25:34.477Z,11.77
2023-01-10T00:28:19.906Z,11.93
2023-01-10T00:30:55.894Z,12.87
2023-01-10T00:33:22.873Z,11.52
2023-01-10T00:35:49.513Z,13.05
2023-01-10T00:38:16.942Z,11.68
2023-01-10T00:40:43.482Z,12.23
2023-01-10T00:43:28.840Z,12.55
2023-01-10T00:45:55.457Z,13.02
2023-01-10T00:48:22.029Z,11.52
2023-01-10T00:50:48.535Z,13.05
2023-01-10T00:53:15.340Z,12.70
2023-01-10T00:55:41.978Z,13.10
2023-01-10T00:58:11.673Z,12.35
2023-01-10T01:00:42.449Z,13.23
2023-01-10T01:03:09.089Z,14.00
2023-01-10T01:05:42.087Z,12.80
2023-01-10T01:08:09.211Z,12.27
2023-01-10T01:10:35.737Z,12.70
2023-01-10T01:13:17.809Z,13.60
2023-01-10T01:15:44.732Z,13.07
2023-01-10T01:18:18.500Z,13.05
2023-01-10T01:20:48.175Z,13.07
2023-01-10T01:23:15.393Z,12.60
2023-01-10T01:25:41.954Z,13.68
2023-01-10T01:28:12.191Z,14.18
2023-01-10T01:30:38.976Z,14.38
2023-01-10T01:33:05.498Z,14.25
2023-01-10T01:35:33.487Z,14.30
2023-01-10T01:38:00.193Z,14.20
2023-01-10T01:40:26.903Z,14.27
2023-01-10T01:42:55.970Z,14.77
2023-01-10T01:45:22.493Z,14.02
2023-01-10T01:47:55.954Z,14.13
2023-01-10T01:50:41.770Z,16.35
2023-01-10T01:53:14.910Z,17.97
2023-01-10T01:55:43.847Z,18.52
2023-01-10T01:58:18.855Z,18.13
2023-01-10T02:00:45.692Z,18.63
2023-01-10T02:03:14.757Z,17.85
2023-01-10T02:05:43.122Z,17.35
2023-01-10T02:08:09.657Z,18.75
2023-01-10T02:10:44.485Z,18.38
2023-01-10T02:13:15.148Z,16.98
2023-01-10T02:15:41.689Z,17.95
2023-01-10T02:18:08.406Z,18.70
2023-01-10T02:21:15.616Z,19.92
2023-01-10T02:23:54.843Z,18.25
2023-01-10T02:26:42.766Z,19.00
2023-01-10T02:29:33.305Z,18.42
2023-01-10T02:32:28.595Z,18.95
2023-01-10T02:35:34.736Z,17.63
2023-01-10T02:38:16.256Z,17.38
2023-01-10T02:41:01.373Z,16.52
2023-01-10T02:43:33.326Z,17.67
2023-01-10T02:46:04.300Z,16.40
2023-01-10T02:48:30.940Z,16.38
2023-01-10T02:51:04.135Z,17.63
2023-01-10T02:53:43.667Z,15.43
2023-01-10T02:56:38.070Z,15.40
2023-01-10T02:59:32.920Z,14.50
2023-01-10T03:02:04.315Z,15.23
2023-01-10T03:04:45.688Z,14.57
2023-01-10T03:07:37.155Z,16.02
2023-01-10T03:10:16.245Z,14.88
2023-01-10T03:12:58.937Z,14.85
2023-01-10T03:15:30.209Z,14.45
2023-01-10T03:18:01.613Z,13.57
2023-01-10T03:20:32.417Z,13.15
2023-01-10T03:23:03.032Z,13.57
2023-01-10T03:25:34.296Z,12.18
2023-01-10T03:28:07.274Z,10.80
2023-01-10T03:31:14.292Z,11.82
2023-01-10T03:33:41.880Z,11.75
2023-01-10T03:36:17.012Z,10.43
2023-01-10T03:39:00.468Z,10.38
2023-01-10T03:41:50.958Z,10.73
2023-01-10T03:44:48.225Z,10.48
2023-01-10T03:47:20.809Z,9.40
2023-01-10T03:49:51.292Z,9.50
2023-01-10T03:52:20.201Z,8.90
2023-01-10T03:54:47.948Z,8.85
2023-01-10T03:57:24.690Z,9.07
2023-01-10T03:59:55.401Z,8.00
2023-01-10T04:02:21.922Z,8.30
2023-01-10T04:04:48.419Z,8.00
2023-01-10T04:07:14.969Z,8.40
2023-01-10T04:09:41.526Z,7.32
2023-01-10T04:12:08.045Z,8.02
2023-01-10T04:14:34.530Z,6.70
2023-01-10T04:17:01.117Z,7.88
2023-01-10T04:19:27.659Z,7.68
2023-01-10T04:21:54.165Z,7.38
2023-01-10T04:24:20.643Z,7.57
2023-01-10T04:26:47.149Z,6.97
2023-01-10T04:29:13.724Z,6.63
2023-01-10T04:31:40.407Z,6.85
2023-01-10T04:34:07.887Z,7.35
2023-01-10T04:36:34.571Z,6.95
2023-01-10T04:39:01.296Z,7.28
2023-01-10T04:41:28.130Z,6.53
2023-01-10T04:43:54.818Z,5.93
2023-01-10T04:46:21.362Z,5.90
2023-01-10T04:48:47.850Z,5.45
2023-01-10T04:51:14.363Z,6.32
2023-01-10T04:53:41.404Z,5.72
2023-01-10T04:56:09.768Z,5.47
2023-01-10T04:58:38.160Z,5.32
2023-01-10T05:01:25.031Z,5.38
2023-01-10T05:03:53.620Z,5.47
2023-01-10T05:06:21.900Z,5.28
2023-01-10T05:08:48.490Z,4.88
2023-01-10T05:11:15.039Z,5.55
2023-01-10T05:13:42.066Z,5.13
2023-01-10T05:16:08.813Z,4.55
2023-01-10T05:18:35.543Z,4.80
2023-01-10T05:21:08.210Z,4.97
2023-01-10T05:23:34.983Z,4.75
2023-01-10T05:26:12.223Z,4.95
2023-01-10T05:28:39.483Z,5.13
2023-01-10T05:31:07.717Z,5.22
2023-01-10T05:33:34.768Z,4.82
2023-01-10T05:36:02.568Z,4.65
2023-01-10T05:38:30.297Z,4.57
2023-01-10T05:40:59.091Z,4.93
2023-01-10T05:43:27.129Z,4.80
2023-01-10T05:45:53.664Z,4.88
2023-01-10T05:48:20.319Z,5.10
2023-01-10T05:50:49.004Z,4.63
2023-01-10T05:53:15.524Z,5.32
2023-01-10T05:55:42.252Z,4.78
2023-01-10T05:58:11.195Z,4.28
2023-01-10T06:00:39.832Z,5.38
2023-01-10T06:03:07.438Z,4.85
2023-01-10T06:05:33.961Z,4.70
2023-01-10T06:08:00.515Z,4.60
2023-01-10T06:10:27.230Z,4.95
2023-01-10T06:12:54.152Z,4.60
2023-01-10T06:15:20.678Z,4.85
2023-01-10T06:17:47.307Z,4.50
2023-01-10T06:20:14.019Z,4.72
2023-01-10T06:22:42.591Z,4.53
2023-01-10T06:25:10.930Z,4.38
2023-01-10T06:27:41.021Z,4.28
2023-01-10T06:30:09.014Z,4.30
2023-01-10T06:32:36.068Z,4.45
2023-01-10T06:35:02.754Z,4.50
2023-01-10T06:37:29.228Z,4.50
2023-01-10T06:39:55.700Z,4.13
2023-01-10T06:42:22.494Z,4.75
2023-01-10T06:44:49.072Z,4.93
2023-01-10T06:47:15.573Z,6.10
2023-01-10T06:49:42.095Z,5.82
2023-01-10T06:52:08.586Z,5.13
2023-01-10T06:54:35.102Z,5.25
2023-01-10T06:57:01.597Z,5.50
2023-01-10T06:59:28.079Z,5.80
2023-01-10T07:01:54.718Z,5.57
2023-01-10T07:04:21.280Z,5.10
2023-01-10T07:06:47.797Z,4.95
2023-01-10T07:09:14.320Z,5.10
2023-01-10T07:11:40.913Z,5.45
2023-01-10T07:14:07.469Z,5.05
2023-01-10T07:16:33.958Z,5.07
2023-01-10T07:19:00.970Z,4.88
2023-01-10T07:21:27.491Z,4.95
2023-01-10T07:23:54.044Z,5.03
2023-01-10T07:26:20.982Z,5.22
2023-01-10T07:28:51.627Z,5.15
2023-01-10T07:31:23.893Z,5.07
2023-01-10T07:33:53.639Z,4.93
2023-01-10T07:36:20.678Z,4.68
2023-01-10T07:38:47.187Z,4.97
2023-01-10T07:41:13.813Z,5.10
2023-01-10T07:43:40.401Z,4.82
2023-01-10T07:46:12.400Z,5.00
2023-01-10T07:48:41.938Z,4.72
2023-01-10T07:51:08.983Z,4.43
2023-01-10T07:53:35.534Z,4.57
2023-01-10T07:56:03.461Z,4.90
2023-01-10T07:58:37.184Z,4.30
2023-01-10T08:01:05.063Z,4.45
2023-01-10T08:03:33.358Z,4.80
2023-01-10T08:06:06.132Z,4.65
2023-01-10T08:08:36.042Z,4.45
2023-01-10T08:11:02.843Z,5.07
2023-01-10T08:13:30.158Z,4.60
2023-01-10T08:15:57.065Z,4.95
2023-01-10T08:20:58.473Z,5.03
2023-01-10T08:23:25.055Z,5.28
2023-01-10T08:25:51.799Z,5.13
2023-01-10T08:28:18.511Z,5.35
2023-01-10T08:30:45.313Z,4.40
2023-01-10T08:33:12.462Z,5.07
2023-01-10T08:35:41.467Z,5.00
2023-01-10T08:38:08.870Z,5.15
2023-01-10T08:40:35.460Z,5.43
2023-01-10T08:43:07.419Z,5.60
2023-01-10T08:45:35.229Z,5.30
2023-01-10T08:48:02.077Z,5.25
2023-01-10T08:50:28.693Z,5.53
2023-01-10T08:53:00.790Z,5.07
2023-01-10T08:55:28.819Z,5.10
2023-01-10T08:57:55.347Z,5.32
2023-01-10T09:00:22.525Z,5.00
2023-01-10T09:02:49.136Z,4.82
2023-01-10T09:05:27.159Z,6.00
2023-01-10T09:08:00.058Z,4.95
2023-01-10T09:10:27.451Z,5.03
2023-01-10T09:12:57.008Z,4.45
2023-01-10T09:15:26.411Z,4.78
2023-01-10T09:17:54.583Z,4.80
2023-01-10T09:20:21.370Z,5.30
2023-01-10T09:22:47.984Z,4.50
2023-01-10T09:25:14.490Z,4.82
2023-01-10T09:27:41.066Z,4.78
2023-01-10T09:30:08.260Z,5.07
2023-01-10T09:32:34.804Z,4.35
2023-01-10T09:35:01.310Z,4.50
2023-01-10T09:37:27.825Z,4.70
2023-01-10T09:39:54.354Z,4.30
2023-01-10T09:42:39.578Z,4.18
2023-01-10T09:45:16.648Z,4.45
2023-01-10T09:48:03.879Z,4.45
2023-01-10T09:50:36.396Z,4.32
2023-01-10T09:53:11.063Z,4.22
2023-01-10T09:55:39.021Z,4.43
2023-01-10T09:58:11.206Z,5.38
2023-01-10T10:00:44.239Z,4.82
2023-01-10T10:03:28.876Z,4.78
2023-01-10T10:06:03.737Z,4.85
2023-01-10T10:08:37.463Z,4.43
2023-01-10T10:11:25.787Z,4.22
2023-01-10T10:14:04.996Z,4.60
2023-01-10T10:16:37.183Z,4.40
2023-01-10T10:19:18.997Z,5.10
2023-01-10T10:22:06.414Z,4.53
2023-01-10T10:24:39.025Z,4.97
2023-01-10T10:27:13.472Z,5.10
2023-01-10T10:29:58.447Z,5.30
2023-01-10T10:32:56.019Z,5.18
2023-01-10T10:35:29.785Z,4.93
2023-01-10T10:38:04.606Z,5.00
2023-01-10T10:40:37.648Z,4.57
2023-01-10T10:43:25.606Z,5.03
2023-01-10T10:45:57.184Z,5.22
2023-01-10T10:48:33.431Z,4.78
2023-01-10T10:53:39.160Z,5.03
2023-01-10T10:56:10.845Z,5.07
2023-01-10T10:58:40.323Z,5.07
2023-01-10T11:01:06.970Z,4.90
2023-01-10T11:03:46.878Z,5.07
2023-01-10T11:06:14.986Z,5.22
2023-01-10T11:08:44.247Z,4.97
2023-01-10T11:11:24.213Z,5.10
2023-01-10T11:13:59.791Z,5.18
2023-01-10T11:16:36.772Z,5.75
2023-01-10T11:19:25.131Z,5.68
2023-01-10T11:22:03.680Z,5.20
2023-01-10T11:24:40.238Z,5.00
2023-01-10T11:27:22.919Z,5.30
2023-01-10T11:29:56.752Z,5.38
2023-01-10T11:32:33.859Z,4.93
2023-01-10T11:35:03.546Z,4.85
2023-01-10T11:37:33.504Z,5.40
2023-01-10T11:42:47.563Z,5.38
2023-01-10T11:45:20.022Z,5.25
2023-01-10T11:48:21.394Z,5.80
2023-01-10T11:50:54.695Z,5.15
2023-01-10T11:53:43.089Z,5.25
2023-01-10T11:56:12.956Z,5.15
2023-01-10T11:58:41.489Z,5.68
2023-01-10T12:01:44.452Z,5.30
2023-01-10T12:04:22.874Z,5.72
2023-01-10T12:06:53.149Z,5.20
2023-01-10T12:09:56.724Z,5.47
2023-01-10T12:12:31.305Z,5.90
2023-01-10T12:14:59.582Z,6.25
2023-01-10T12:17:37.734Z,6.10
2023-01-10T12:20:07.183Z,5.95
2023-01-10T12:22:40.713Z,6.05
2023-01-10T12:25:43.522Z,6.78
2023-01-10T12:28:29.064Z,5.57
2023-01-10T12:30:58.756Z,5.85
2023-01-10T12:33:34.384Z,7.07
2023-01-10T12:36:31.770Z,5.60
2023-01-10T12:39:07.772Z,5.50
2023-01-10T12:42:04.164Z,6.00
2023-01-10T12:44:36.998Z,5.93
2023-01-10T12:47:32.080Z,5.40
2023-01-10T12:50:20.892Z,5.25
2023-01-10T12:53:15.437Z,5.88
2023-01-10T12:55:45.455Z,5.18
2023-01-10T12:58:22.359Z,5.53
2023-01-10T13:00:54.068Z,5.07
2023-01-10T13:03:25.651Z,7.15
2023-01-10T13:05:53.281Z,5.95
2023-01-10T13:08:24.001Z,6.30
2023-01-10T13:10:53.582Z,6.53
2023-01-10T13:13:37.861Z,6.38
2023-01-10T13:16:36.223Z,7.03
2023-01-10T13:19:11.511Z,6.65
2023-01-10T13:21:40.954Z,6.83
2023-01-10T13:24:23.188Z,6.35
2023-01-10T13:29:37.782Z,6.47
2023-01-10T13:32:21.604Z,6.22
2023-01-10T13:34:48.545Z,6.00
2023-01-10T13:37:40.021Z,6.15
2023-01-10T13:40:07.208Z,6.15
2023-01-10T13:42:56.136Z,7.13
2023-01-10T13:45:27.325Z,7.82
2023-01-10T13:47:58.131Z,7.35
2023-01-10T13:50:33.783Z,7.20
2023-01-10T13:53:03.925Z,7.32
2023-01-10T13:55:55.309Z,7.35
2023-01-10T13:58:41.731Z,6.53
2023-01-10T14:01:57.389Z,6.50
2023-01-10T14:04:30.088Z,6.47
2023-01-10T14:07:01.489Z,6.65
2023-01-10T14:09:33.791Z,7.35
2023-01-10T14:12:05.314Z,7.50
2023-01-10T14:14:37.280Z,6.97
2023-01-10T14:17:19.023Z,7.00
2023-01-10T14:19:48.343Z,7.72
2023-01-10T14:22:31.593Z,7.38
2023-01-10T14:25:00.607Z,7.32
2023-01-10T14:27:36.212Z,8.10
2023-01-10T14:30:03.807Z,8.60
2023-01-10T14:32:39.971Z,8.20
2023-01-10T14:37:50.169Z,7.65
2023-01-10T14:40:38.036Z,7.45
2023-01-10T14:43:09.368Z,7.70
2023-01-10T14:45:45.071Z,9.25
2023-01-10T14:48:38.533Z,7.88
2023-01-10T14:51:21.123Z,7.18
2023-01-10T14:53:57.652Z,7.22
2023-01-10T14:56:28.253Z,8.00
2023-01-10T14:58:54.858Z,7.75
2023-01-10T15:01:29.921Z,8.25
2023-01-10T15:03:57.497Z,8.50
2023-01-10T15:06:26.022Z,8.30
2023-01-10T15:09:04.084Z,9.07
2023-01-10T15:11:32.419Z,8.85
2023-01-10T15:14:08.301Z,9.60
2023-01-10T15:16:35.126Z,7.80
2023-01-10T15:19:01.899Z,8.10
2023-01-10T15:24:00.364Z,7.78
2023-01-10T15:29:13.696Z,8.32
2023-01-10T15:31:41.538Z,8.20
2023-01-10T15:34:10.501Z,9.13
2023-01-10T15:36:42.885Z,10.00
2023-01-10T15:39:20.021Z,10.32
2023-01-10T15:41:46.743Z,9.32
2023-01-10T15:44:38.308Z,10.40
2023-01-10T15:47:06.426Z,11.43
2023-01-10T15:49:33.514Z,11.18
2023-01-10T15:52:00.396Z,10.90
2023-01-10T15:54:31.772Z,9.18
2023-01-10T15:57:07.699Z,9.77
2023-01-10T15:59:46.542Z,10.20
2023-01-10T16:02:29.273Z,8.95
2023-01-10T16:04:58.596Z,8.63
2023-01-10T16:07:34.468Z,9.18
2023-01-10T16:10:06.215Z,8.90
2023-01-10T16:12:57.115Z,8.88
2023-01-10T16:15:26.941Z,8.75
2023-01-10T16:17:54.438Z,8.45
2023-01-10T16:20:42.996Z,10.10
2023-01-10T16:23:19.088Z,12.18
2023-01-10T16:25:49.890Z,10.88
2023-01-10T16:28:18.284Z,9.98
2023-01-10T16:30:48.146Z,11.43
2023-01-10T16:33:17.790Z,9.85
2023-01-10T16:35:45.680Z,12.10
2023-01-10T16:38:13.482Z,10.88
2023-01-10T16:41:22.278Z,9.88
2023-01-10T16:43:49.663Z,9.48
2023-01-10T16:46:16.451Z,10.20
2023-01-10T16:48:45.115Z,10.35
2023-01-10T16:51:20.529Z,10.10
2023-01-10T16:53:47.799Z,11.25
2023-01-10T16:56:17.201Z,10.40
2023-01-10T16:58:43.835Z,11.82
2023-01-10T17:01:16.649Z,12.02
2023-01-10T17:03:43.890Z,11.70
2023-01-10T17:06:15.247Z,11.20
2023-01-10T17:08:42.634Z,10.50
2023-01-10T17:11:22.738Z,11.02
2023-01-10T17:13:49.505Z,12.60
2023-01-10T17:16:18.656Z,13.77
2023-01-10T17:18:46.207Z,12.40
2023-01-10T17:21:16.828Z,12.45
2023-01-10T17:23:43.729Z,14.93
2023-01-10T17:26:12.575Z,12.65
2023-01-10T17:28:39.502Z,10.50
2023-01-10T17:31:06.092Z,9.98
2023-01-10T17:33:32.622Z,10.13
2023-01-10T17:35:59.131Z,10.85
2023-01-10T17:38:28.900Z,9.85
2023-01-10T17:40:57.661Z,10.82
2023-01-10T17:43:24.186Z,10.63
2023-01-10T17:45:51.905Z,9.75
2023-01-10T17:48:19.672Z,11.85
2023-01-10T17:50:48.785Z,9.57
2023-01-10T17:53:17.670Z,10.13
2023-01-10T17:55:45.546Z,11.65
2023-01-10T17:58:12.229Z,11.38
2023-01-10T18:00:39.130Z,11.10
2023-01-10T18:03:06.481Z,10.02
2023-01-10T18:05:35.161Z,9.45
2023-01-10T18:08:03.273Z,8.07
2023-01-10T18:10:29.853Z,8.02
2023-01-10T18:12:56.610Z,8.20
2023-01-10T18:17:56.356Z,7.50
2023-01-10T18:20:22.947Z,7.15
2023-01-10T18:23:07.880Z,7.38
2023-01-10T18:25:34.453Z,7.13
2023-01-10T18:28:00.962Z,7.70
2023-01-10T18:30:27.487Z,8.98
2023-01-10T18:32:55.310Z,7.88
2023-01-10T18:35:22.520Z,7.97
2023-01-10T18:37:49.040Z,7.75
2023-01-10T18:40:15.731Z,9.57
2023-01-10T18:42:42.488Z,8.88
2023-01-10T18:45:09.520Z,7.05
2023-01-10T18:47:36.099Z,6.90
2023-01-10T18:50:02.603Z,5.78
2023-01-10T18:52:29.286Z,5.65
2023-01-10T18:54:55.870Z,6.22
2023-01-10T18:57:22.455Z,6.10
2023-01-10T18:59:49.082Z,5.88
2023-01-10T19:02:15.928Z,5.85
2023-01-10T19:04:42.630Z,6.20
2023-01-10T19:07:09.368Z,6.32
2023-01-10T19:09:35.979Z,6.00
2023-01-10T19:12:02.569Z,6.55
2023-01-10T19:14:29.119Z,7.32
2023-01-10T19:16:55.911Z,7.65
2023-01-10T19:19:22.785Z,10.77
2023-01-10T19:21:49.411Z,10.07
2023-01-10T19:24:20.703Z,9.10
2023-01-10T19:26:47.193Z,7.85
2023-01-10T19:29:13.828Z,8.00
2023-01-10T19:31:40.660Z,7.30
2023-01-10T19:34:07.427Z,9.48
2023-01-10T19:36:34.880Z,8.55
2023-01-10T19:39:01.945Z,9.77
2023-01-10T19:41:29.545Z,12.82
2023-01-10T19:43:57.357Z,12.98
2023-01-10T19:46:24.746Z,13.82
2023-01-10T19:48:52.041Z,12.40
2023-01-10T19:51:18.594Z,7.50
2023-01-10T19:53:46.747Z,6.90
2023-01-10T19:56:25.165Z,5.93
2023-01-10T19:58:53.500Z,6.10
2023-01-10T20:01:26.853Z,6.85
2023-01-10T20:03:55.693Z,7.50
2023-01-10T20:06:24.897Z,18.98
2023-01-10T20:08:54.223Z,12.93
2023-01-10T20:11:22.781Z,9.35
2023-01-10T20:13:49.644Z,9.02
2023-01-10T20:16:18.949Z,11.38
2023-01-10T20:18:45.949Z,11.80
2023-01-10T20:21:14.505Z,9.68
2023-01-10T20:23:42.273Z,9.43
2023-01-10T20:26:17.837Z,9.60
2023-01-10T20:28:45.523Z,10.68
2023-01-10T20:31:21.915Z,10.82
2023-01-10T20:33:49.237Z,11.27
2023-01-10T20:36:18.470Z,12.45
2023-01-10T20:38:45.197Z,13.75
2023-01-10T20:41:14.883Z,10.50
2023-01-10T20:43:43.063Z,10.55
2023-01-10T20:46:12.825Z,10.45
2023-01-10T20:48:40.768Z,11.60
2023-01-10T20:51:08.747Z,12.45
2023-01-10T20:53:35.373Z,12.60
2023-01-10T20:56:07.140Z,12.27
2023-01-10T20:58:35.074Z,11.90
2023-01-10T21:01:02.021Z,11.18
2023-01-10T21:03:28.803Z,10.73
2023-01-10T21:05:55.719Z,11.02
2023-01-10T21:08:22.662Z,12.45
2023-01-10T21:10:50.622Z,12.30
2023-01-10T21:13:17.528Z,12.00
2023-01-10T21:15:46.120Z,10.80
2023-01-10T21:18:14.220Z,10.98
2023-01-10T21:20:42.106Z,10.60
2023-01-10T21:23:09.544Z,11.75
2023-01-10T21:25:36.244Z,11.95
2023-01-10T21:28:02.938Z,11.95
2023-01-10T21:30:29.583Z,12.68
2023-01-10T21:32:59.926Z,12.18
2023-01-10T21:35:26.447Z,13.23
2023-01-10T21:37:53.021Z,13.00
2023-01-10T21:40:19.531Z,13.65
2023-01-10T21:42:47.373Z,13.60
2023-01-10T21:45:14.363Z,12.57
2023-01-10T21:47:41.040Z,11.32
2023-01-10T21:50:10.700Z,10.10
2023-01-10T21:52:37.366Z,10.63
2023-01-10T21:55:04.869Z,11.23
2023-01-10T21:57:31.470Z,11.07
2023-01-10T21:59:58.026Z,9.13
2023-01-10T22:02:27.444Z,10.00
2023-01-10T22:04:54.848Z,10.77
2023-01-10T22:07:22.921Z,8.93
2023-01-10T22:09:50.767Z,10.05
2023-01-10T22:12:18.449Z,9.98
2023-01-10T22:14:45.635Z,10.18
2023-01-10T22:17:12.649Z,9.27
2023-01-10T22:19:40.559Z,10.40
2023-01-10T22:22:08.283Z,10.57
2023-01-10T22:24:35.215Z,9.52
2023-01-10T22:27:01.993Z,9.55
2023-01-10T22:29:28.834Z,9.82
2023-01-10T22:31:55.794Z,9.43
2023-01-10T22:34:22.674Z,9.27
2023-01-10T22:36:49.552Z,10.15
2023-01-10T22:39:16.049Z,10.75
2023-01-10T22:41:42.602Z,11.05
2023-01-10T22:44:17.608Z,10.80
2023-01-10T22:46:44.111Z,10.35
2023-01-10T22:49:10.609Z,10.93
2023-01-10T22:51:37.682Z,10.35
2023-01-10T22:54:04.860Z,11.25
2023-01-10T22:56:33.086Z,10.80
2023-01-10T22:58:59.576Z,12.07
2023-01-10T23:01:26.292Z,11.95
2023-01-10T23:03:53.094Z,11.57
2023-01-10T23:06:19.945Z,10.77
2023-01-10T23:08:46.948Z,9.85
2023-01-10T23:11:16.988Z,10.35
2023-01-10T23:13:44.734Z,9.45
2023-01-10T23:16:15.601Z,9.50
2023-01-10T23:18:42.552Z,9.25
2023-01-10T23:21:09.448Z,8.98
2023-01-10T23:23:35.968Z,8.95
2023-01-10T23:26:05.912Z,9.30
2023-01-10T23:28:42.798Z,9.45
2023-01-10T23:31:09.367Z,10.00
2023-01-10T23:33:36.193Z,10.02
2023-01-10T23:36:03.466Z,9.48
2023-01-10T23:38:30.405Z,9.88
2023-01-10T23:40:57.478Z,9.38
2023-01-10T23:43:24.539Z,8.75
2023-01-10T23:45:51.251Z,8.45
2023-01-10T23:48:18.265Z,9.75
2023-01-10T23:50:47.613Z,8.65
2023-01-10T23:53:14.857Z,8.02
2023-01-10T23:55:41.382Z,9.32
2023-01-10T23:58:08.181Z,9.63
